Valhermoso Sp, Alabama
Current Conditions -  °F | °C
As of 9:53 PM on Friday 31 Oct 2014 (Local Time) from KHSV Reporting Station
Clear Clear  
Wind Chill: 34°   Ceiling: Unl
Heat Index: 41°   Visibility: 10mi
Dew Point: 25°   Wind: 12mph
Humidity: 53%   Direction: 320°NW
Pressure: 30.16"   Gusts: NA
Location:  34.5494°N, 86.6929°W
Report Text: KHSV 010253Z 32010KT 10SM CLR 05/M04 A3016 RMK AO2 SLP212 T00501039 50017
Loading
Personal Weather Stations






























Interactive Weather Map
Tropical Storm Tracking
New forecast layout! Learn more

10-Day Weather Forecast

Advertisements
Track Severe Weather on mobile